createdAt,value
2023-05-12T00:00:11.104Z,11.74
2023-05-12T00:01:11.077Z,11.40
2023-05-12T00:02:11.084Z,11.72
2023-05-12T00:03:11.226Z,14.56
2023-05-12T00:04:11.256Z,15.46
2023-05-12T00:05:11.074Z,14.46
2023-05-12T00:06:11.078Z,14.70
2023-05-12T00:07:11.089Z,12.18
2023-05-12T00:08:11.086Z,14.18
2023-05-12T00:09:11.071Z,17.34
2023-05-12T00:10:11.087Z,12.78
2023-05-12T00:11:11.078Z,13.42
2023-05-12T00:12:11.079Z,12.96
2023-05-12T00:13:11.128Z,14.12
2023-05-12T00:14:11.075Z,11.46
2023-05-12T00:15:11.074Z,14.46
2023-05-12T00:16:11.141Z,15.98
2023-05-12T00:17:11.081Z,13.90
2023-05-12T00:18:11.073Z,13.04
2023-05-12T00:19:11.123Z,15.42
2023-05-12T00:20:11.078Z,17.56
2023-05-12T00:21:12.073Z,13.68
2023-05-12T00:22:11.076Z,15.98
2023-05-12T00:23:11.078Z,17.80
2023-05-12T00:24:11.080Z,17.84
2023-05-12T00:25:11.089Z,23.16
2023-05-12T00:26:11.081Z,17.92
2023-05-12T00:27:11.073Z,18.16
2023-05-12T00:28:11.084Z,18.22
2023-05-12T00:29:11.080Z,19.14
2023-05-12T00:30:11.078Z,16.48
2023-05-12T00:31:11.110Z,16.94
2023-05-12T00:32:11.083Z,18.06
2023-05-12T00:33:11.094Z,17.90
2023-05-12T00:34:11.081Z,21.14
2023-05-12T00:35:11.085Z,22.68
2023-05-12T00:36:11.091Z,17.60
2023-05-12T00:37:11.083Z,16.92
2023-05-12T00:38:11.083Z,18.76
2023-05-12T00:39:11.086Z,18.50
2023-05-12T00:40:11.081Z,20.14
2023-05-12T00:41:11.089Z,17.50
2023-05-12T00:42:11.082Z,17.10
2023-05-12T00:43:11.088Z,18.52
2023-05-12T00:44:11.092Z,18.06
2023-05-12T00:45:11.079Z,20.82
2023-05-12T00:46:11.126Z,23.72
2023-05-12T00:47:11.095Z,18.70
2023-05-12T00:48:11.139Z,20.86
2023-05-12T00:49:11.087Z,22.24
2023-05-12T00:50:11.115Z,23.54
2023-05-12T00:51:11.085Z,18.92
2023-05-12T00:52:11.086Z,19.38
2023-05-12T00:53:11.090Z,19.86
2023-05-12T00:54:11.088Z,21.38
2023-05-12T00:55:11.090Z,21.26
2023-05-12T00:56:11.092Z,19.50
2023-05-12T00:57:11.105Z,27.10
2023-05-12T00:58:11.092Z,23.48
2023-05-12T00:59:11.096Z,21.56
2023-05-12T01:00:11.087Z,21.50
2023-05-12T01:01:11.092Z,21.30
2023-05-12T01:02:11.127Z,22.10
2023-05-12T01:03:11.164Z,20.68
2023-05-12T01:04:11.077Z,20.74
2023-05-12T01:05:11.095Z,20.06
2023-05-12T01:06:19.061Z,21.08
2023-05-12T01:07:19.066Z,21.34
2023-05-12T01:08:11.086Z,20.82
2023-05-12T01:09:11.078Z,20.66
2023-05-12T01:10:19.374Z,19.94
2023-05-12T01:11:11.074Z,26.54
2023-05-12T01:12:11.077Z,20.94
2023-05-12T01:13:11.062Z,21.98
2023-05-12T01:14:11.060Z,22.38
2023-05-12T01:15:11.072Z,25.68
2023-05-12T01:16:13.068Z,22.64
2023-05-12T01:17:12.106Z,21.24
2023-05-12T01:18:11.121Z,22.90
2023-05-12T01:19:19.125Z,22.30
2023-05-12T01:20:11.062Z,20.90
2023-05-12T01:21:11.066Z,23.64
2023-05-12T01:22:11.094Z,21.86
2023-05-12T01:23:11.088Z,23.38
2023-05-12T01:24:11.081Z,27.72
2023-05-12T01:25:11.070Z,23.04
2023-05-12T01:26:11.074Z,26.32
2023-05-12T01:27:11.082Z,25.10
2023-05-12T01:28:11.070Z,25.32
2023-05-12T01:29:11.070Z,22.00
2023-05-12T01:30:11.081Z,23.30
2023-05-12T01:31:11.124Z,24.28
2023-05-12T01:32:11.076Z,24.14
2023-05-12T01:33:11.078Z,22.80
2023-05-12T01:34:14.067Z,23.66
2023-05-12T01:35:11.067Z,20.78
2023-05-12T01:36:11.069Z,24.92
2023-05-12T01:37:13.072Z,22.42
2023-05-12T01:38:11.066Z,21.02
2023-05-12T01:39:11.062Z,20.92
2023-05-12T01:40:11.072Z,19.96
2023-05-12T01:41:11.068Z,26.16
2023-05-12T01:42:11.072Z,24.28
2023-05-12T01:43:11.072Z,23.04
2023-05-12T01:44:11.066Z,24.36
2023-05-12T01:45:11.066Z,22.14
2023-05-12T01:46:11.264Z,20.84
2023-05-12T01:47:13.064Z,22.16
2023-05-12T01:48:11.065Z,21.26
2023-05-12T01:49:11.072Z,25.62
2023-05-12T01:50:11.070Z,25.64
2023-05-12T01:51:11.097Z,19.92
2023-05-12T01:52:11.069Z,21.86
2023-05-12T01:53:11.063Z,20.74
2023-05-12T01:54:11.075Z,22.56
2023-05-12T01:55:11.083Z,26.76
2023-05-12T01:56:11.063Z,21.86
2023-05-12T01:57:11.065Z,23.20
2023-05-12T01:58:11.064Z,20.80
2023-05-12T01:59:11.116Z,24.46
2023-05-12T02:00:11.071Z,30.50
2023-05-12T02:01:11.065Z,27.92
2023-05-12T02:02:11.166Z,24.94
2023-05-12T02:03:11.173Z,21.54
2023-05-12T02:04:12.206Z,23.52
2023-05-12T02:05:11.067Z,20.70
2023-05-12T02:06:11.078Z,23.82
2023-05-12T02:07:11.070Z,25.64
2023-05-12T02:08:11.066Z,28.62
2023-05-12T02:09:11.064Z,25.38
2023-05-12T02:10:11.076Z,20.78
2023-05-12T02:11:11.085Z,20.78
2023-05-12T02:12:11.065Z,21.36
2023-05-12T02:13:11.069Z,22.40
2023-05-12T02:14:11.064Z,22.06
2023-05-12T02:15:11.074Z,26.86
2023-05-12T02:16:11.134Z,33.26
2023-05-12T02:17:11.085Z,23.52
2023-05-12T02:18:11.097Z,31.62
2023-05-12T02:19:11.112Z,29.68
2023-05-12T02:20:11.080Z,31.66
2023-05-12T02:21:11.068Z,26.14
2023-05-12T02:22:11.073Z,33.08
2023-05-12T02:23:11.075Z,30.46
2023-05-12T02:24:12.333Z,28.38
2023-05-12T02:25:11.085Z,27.56
2023-05-12T02:26:11.071Z,29.14
2023-05-12T02:27:11.068Z,31.30
2023-05-12T02:28:14.073Z,24.80
2023-05-12T02:29:11.080Z,23.48
2023-05-12T02:30:11.072Z,24.18
2023-05-12T02:31:11.071Z,28.16
2023-05-12T02:32:11.127Z,29.18
2023-05-12T02:33:11.070Z,27.84
2023-05-12T02:34:11.075Z,31.82
2023-05-12T02:35:11.093Z,29.32
2023-05-12T02:36:11.074Z,33.44
2023-05-12T02:37:11.079Z,31.82
2023-05-12T02:38:11.082Z,34.96
2023-05-12T02:39:11.081Z,32.38
2023-05-12T02:40:11.076Z,32.06
2023-05-12T02:41:11.082Z,34.00
2023-05-12T02:42:11.074Z,31.40
2023-05-12T02:43:11.069Z,34.82
2023-05-12T02:44:11.073Z,44.02
2023-05-12T02:45:11.070Z,36.72
2023-05-12T02:46:11.133Z,38.52
2023-05-12T02:47:11.078Z,40.96
2023-05-12T02:48:11.103Z,37.58
2023-05-12T02:49:11.086Z,42.26
2023-05-12T02:50:11.073Z,40.20
2023-05-12T02:51:11.085Z,38.00
2023-05-12T02:52:11.070Z,43.06
2023-05-12T02:53:11.075Z,50.88
2023-05-12T02:54:11.087Z,44.16
2023-05-12T02:55:11.079Z,47.28
2023-05-12T02:56:11.080Z,41.12
2023-05-12T02:57:11.080Z,46.44
2023-05-12T02:58:11.078Z,44.68
2023-05-12T02:59:11.075Z,40.24
2023-05-12T03:00:11.092Z,42.20
2023-05-12T03:01:11.700Z,41.08
2023-05-12T03:02:11.148Z,42.76
2023-05-12T03:03:11.245Z,46.72
2023-05-12T03:04:11.086Z,39.38
2023-05-12T03:05:11.076Z,38.90
2023-05-12T03:06:11.083Z,38.02
2023-05-12T03:07:11.080Z,39.62
2023-05-12T03:08:11.091Z,38.88
2023-05-12T03:09:11.076Z,36.50
2023-05-12T03:10:11.114Z,39.12
2023-05-12T03:11:11.086Z,33.74
2023-05-12T03:12:11.089Z,39.18
2023-05-12T03:13:11.091Z,33.46
2023-05-12T03:14:11.078Z,33.72
2023-05-12T03:15:11.078Z,39.50
2023-05-12T03:16:11.088Z,33.22
2023-05-12T03:17:11.160Z,33.52
2023-05-12T03:18:11.147Z,33.28
2023-05-12T03:19:11.211Z,34.34
2023-05-12T03:20:11.076Z,36.06
2023-05-12T03:21:11.080Z,36.86
2023-05-12T03:22:13.077Z,31.90
2023-05-12T03:23:11.081Z,34.36
2023-05-12T03:24:11.084Z,33.82
2023-05-12T03:25:11.103Z,33.44
2023-05-12T03:26:11.076Z,36.16
2023-05-12T03:27:11.080Z,28.28
2023-05-12T03:28:11.080Z,29.62
2023-05-12T03:29:11.074Z,30.60
2023-05-12T03:30:11.077Z,26.26
2023-05-12T03:31:11.086Z,26.80
2023-05-12T03:32:11.112Z,32.64
2023-05-12T03:33:11.084Z,29.22
2023-05-12T03:34:11.092Z,29.78
2023-05-12T03:35:11.100Z,32.28
2023-05-12T03:36:11.078Z,30.28
2023-05-12T03:37:11.088Z,31.80
2023-05-12T03:38:11.080Z,24.54
2023-05-12T03:39:12.086Z,31.78
2023-05-12T03:40:11.083Z,30.46
2023-05-12T03:41:11.080Z,28.88
2023-05-12T03:42:11.083Z,27.18
2023-05-12T03:43:11.079Z,29.40
2023-05-12T03:44:12.087Z,27.42
2023-05-12T03:45:11.090Z,28.80
2023-05-12T03:46:11.137Z,29.34
2023-05-12T03:47:11.202Z,31.60
2023-05-12T03:48:11.105Z,23.16
2023-05-12T03:49:11.086Z,26.90
2023-05-12T03:50:11.078Z,22.82
2023-05-12T03:51:11.086Z,23.68
2023-05-12T03:52:11.090Z,29.56
2023-05-12T03:53:11.082Z,27.16
2023-05-12T03:54:11.081Z,27.46
2023-05-12T03:55:11.085Z,29.38
2023-05-12T03:56:11.090Z,25.12
2023-05-12T03:57:11.090Z,23.32
2023-05-12T03:58:11.112Z,24.24
2023-05-12T03:59:11.082Z,21.06
2023-05-12T04:00:11.078Z,26.86
2023-05-12T04:01:11.073Z,25.06
2023-05-12T04:02:11.099Z,23.76
2023-05-12T04:03:11.157Z,24.68
2023-05-12T04:04:11.165Z,27.18
2023-05-12T04:05:12.065Z,27.00
2023-05-12T04:06:11.072Z,26.46
2023-05-12T04:07:11.066Z,21.64
2023-05-12T04:08:11.071Z,26.22
2023-05-12T04:09:11.060Z,23.32
2023-05-12T04:10:11.073Z,24.78
2023-05-12T04:11:11.081Z,27.96
2023-05-12T04:12:11.062Z,24.56
2023-05-12T04:13:11.069Z,25.00
2023-05-12T04:14:11.067Z,26.78
2023-05-12T04:15:11.080Z,29.38
2023-05-12T04:16:11.097Z,34.54
2023-05-12T04:17:11.066Z,33.52
2023-05-12T04:18:11.063Z,37.54
2023-05-12T04:19:11.127Z,33.24
2023-05-12T04:20:11.074Z,33.44
2023-05-12T04:21:11.063Z,34.32
2023-05-12T04:22:11.071Z,31.30
2023-05-12T04:23:11.073Z,37.10
2023-05-12T04:24:11.063Z,32.30
2023-05-12T04:25:11.090Z,39.92
2023-05-12T04:26:11.070Z,32.92
2023-05-12T04:27:11.067Z,31.26
2023-05-12T04:28:12.272Z,30.72
2023-05-12T04:29:11.070Z,30.18
2023-05-12T04:30:11.068Z,30.66
2023-05-12T04:31:11.072Z,35.08
2023-05-12T04:32:11.125Z,32.24
2023-05-12T04:33:11.095Z,27.44
2023-05-12T04:34:11.079Z,36.14
2023-05-12T04:35:11.073Z,28.14
2023-05-12T04:36:11.064Z,25.18
2023-05-12T04:37:11.075Z,30.78
2023-05-12T04:38:11.071Z,21.00
2023-05-12T04:39:11.073Z,27.08
2023-05-12T04:40:11.072Z,26.66
2023-05-12T04:41:11.073Z,27.82
2023-05-12T04:42:11.073Z,26.92
2023-05-12T04:44:13.071Z,23.74
2023-05-12T04:45:11.073Z,25.90
2023-05-12T04:46:11.092Z,27.10
2023-05-12T04:47:11.082Z,31.14
2023-05-12T04:48:11.071Z,29.08
2023-05-12T04:49:11.082Z,31.46
2023-05-12T04:50:11.092Z,25.60
2023-05-12T04:51:11.086Z,28.60
2023-05-12T04:52:11.068Z,25.90
2023-05-12T04:53:11.522Z,34.52
2023-05-12T04:54:12.115Z,27.86
2023-05-12T04:55:11.077Z,24.26
2023-05-12T04:56:11.076Z,36.28
2023-05-12T04:57:11.076Z,32.24
2023-05-12T04:58:11.075Z,30.90
2023-05-12T04:59:11.073Z,30.72
2023-05-12T05:00:11.077Z,34.34
2023-05-12T05:01:11.078Z,30.32
2023-05-12T05:02:11.092Z,26.72
2023-05-12T05:03:11.333Z,35.44
2023-05-12T05:04:11.069Z,31.24
2023-05-12T05:05:11.073Z,31.78
2023-05-12T05:06:11.082Z,32.36
2023-05-12T05:07:11.074Z,30.20
2023-05-12T05:08:11.074Z,30.00
2023-05-12T05:09:11.088Z,35.08
2023-05-12T05:10:11.086Z,32.20
2023-05-12T05:11:11.080Z,33.92
2023-05-12T05:12:11.074Z,38.16
2023-05-12T05:13:11.090Z,34.70
2023-05-12T05:14:11.078Z,29.54
2023-05-12T05:15:11.075Z,31.62
2023-05-12T05:16:11.138Z,33.92
2023-05-12T05:17:11.073Z,32.56
2023-05-12T05:18:11.117Z,28.70
2023-05-12T05:20:11.960Z,31.94
2023-05-12T05:21:11.137Z,34.06
2023-05-12T05:22:11.077Z,30.80
2023-05-12T05:23:11.081Z,27.72
2023-05-12T05:24:11.077Z,29.32
2023-05-12T05:25:11.090Z,31.32
2023-05-12T05:26:11.078Z,30.00
2023-05-12T05:27:11.084Z,30.42
2023-05-12T05:28:11.081Z,39.08
2023-05-12T05:29:11.077Z,31.88
2023-05-12T05:30:11.082Z,31.02
2023-05-12T05:31:15.106Z,30.76
2023-05-12T05:32:11.075Z,36.66
2023-05-12T05:33:11.082Z,40.46
2023-05-12T05:34:11.119Z,33.96
2023-05-12T05:35:11.075Z,31.08
2023-05-12T05:36:11.095Z,32.22
2023-05-12T05:37:11.081Z,33.46
2023-05-12T05:38:11.076Z,35.74
2023-05-12T05:39:11.102Z,37.42
2023-05-12T05:40:11.081Z,34.28
2023-05-12T05:41:11.075Z,34.28
2023-05-12T05:42:11.084Z,37.24
2023-05-12T05:43:11.077Z,34.30
2023-05-12T05:44:11.074Z,33.98
2023-05-12T05:45:11.082Z,35.22
2023-05-12T05:46:11.078Z,41.94
2023-05-12T05:47:11.167Z,31.96
2023-05-12T05:48:11.098Z,28.60
2023-05-12T05:49:11.083Z,34.98
2023-05-12T05:50:11.077Z,35.52
2023-05-12T05:51:11.082Z,34.10
2023-05-12T05:52:11.097Z,34.06
2023-05-12T05:53:11.084Z,34.96
2023-05-12T05:54:11.084Z,38.60
2023-05-12T05:55:11.086Z,33.18
2023-05-12T05:56:11.075Z,32.32
2023-05-12T05:57:11.084Z,37.92
2023-05-12T05:58:11.115Z,31.42
2023-05-12T05:59:11.082Z,35.94
2023-05-12T06:00:11.082Z,35.60
2023-05-12T06:01:11.080Z,31.48
2023-05-12T06:02:11.140Z,29.60
2023-05-12T06:03:11.121Z,33.38
2023-05-12T06:04:11.097Z,27.38
2023-05-12T06:05:11.642Z,28.86
2023-05-12T06:06:11.081Z,27.86
2023-05-12T06:07:11.086Z,30.00
2023-05-12T06:08:12.079Z,30.44
2023-05-12T06:09:11.075Z,30.84
2023-05-12T06:10:11.083Z,34.88
2023-05-12T06:11:11.076Z,31.04
2023-05-12T06:12:11.083Z,32.34
2023-05-12T06:13:11.087Z,22.18
2023-05-12T06:14:11.078Z,29.04
2023-05-12T06:15:11.190Z,25.24
2023-05-12T06:16:11.098Z,26.48
2023-05-12T06:17:11.077Z,23.06
2023-05-12T06:18:11.105Z,24.14
2023-05-12T06:19:11.131Z,24.78
2023-05-12T06:20:11.080Z,22.80
2023-05-12T06:21:11.074Z,26.70
2023-05-12T06:22:11.083Z,22.44
2023-05-12T06:23:11.087Z,20.30
2023-05-12T06:24:11.074Z,23.94
2023-05-12T06:25:11.086Z,20.12
2023-05-12T06:26:11.084Z,24.06
2023-05-12T06:27:11.076Z,24.34
2023-05-12T06:28:11.081Z,19.90
2023-05-12T06:29:11.084Z,23.30
2023-05-12T06:30:11.803Z,25.66
2023-05-12T06:31:11.086Z,25.32
2023-05-12T06:32:11.110Z,20.46
2023-05-12T06:33:11.117Z,25.24
2023-05-12T06:34:11.089Z,20.72
2023-05-12T06:35:11.081Z,24.68
2023-05-12T06:36:11.079Z,22.82
2023-05-12T06:37:11.086Z,20.16
2023-05-12T06:38:11.086Z,21.82
2023-05-12T06:39:11.082Z,27.52
2023-05-12T06:40:11.093Z,18.24
2023-05-12T06:41:11.093Z,17.20
2023-05-12T06:42:11.085Z,17.74
2023-05-12T06:43:11.091Z,19.56
2023-05-12T06:44:11.089Z,19.52
2023-05-12T06:45:13.104Z,18.98
2023-05-12T06:46:11.120Z,17.56
2023-05-12T06:47:11.087Z,20.52
2023-05-12T06:48:11.100Z,21.34
2023-05-12T06:49:11.100Z,19.00
2023-05-12T06:50:11.090Z,20.30
2023-05-12T06:51:11.085Z,20.58
2023-05-12T06:52:11.090Z,22.22
2023-05-12T06:53:11.092Z,21.18
2023-05-12T06:54:11.086Z,19.64
2023-05-12T06:55:11.100Z,19.70
2023-05-12T06:56:11.115Z,19.58
2023-05-12T06:57:11.084Z,22.32
2023-05-12T06:58:11.095Z,20.30
2023-05-12T06:59:11.106Z,23.44
2023-05-12T07:00:11.089Z,22.18
2023-05-12T07:01:11.096Z,22.26
2023-05-12T07:02:11.066Z,25.06
2023-05-12T07:03:13.240Z,19.62
2023-05-12T07:04:11.150Z,23.92
2023-05-12T07:05:11.065Z,22.90
2023-05-12T07:06:11.132Z,20.30
2023-05-12T07:07:11.066Z,22.94
2023-05-12T07:08:11.062Z,22.84
2023-05-12T07:09:11.068Z,22.34
2023-05-12T07:10:11.068Z,21.68
2023-05-12T07:11:11.065Z,22.06
2023-05-12T07:12:11.062Z,23.94
2023-05-12T07:13:11.065Z,25.44
2023-05-12T07:14:11.072Z,32.50
2023-05-12T07:15:11.064Z,25.78
2023-05-12T07:16:11.094Z,25.40
2023-05-12T07:17:11.073Z,27.12
2023-05-12T07:18:11.107Z,25.44
2023-05-12T07:19:12.090Z,25.36
2023-05-12T07:20:11.074Z,21.88
2023-05-12T07:21:11.061Z,23.08
2023-05-12T07:22:11.067Z,22.46
2023-05-12T07:23:11.073Z,19.74
2023-05-12T07:24:11.070Z,25.96
2023-05-12T07:25:11.111Z,23.38
2023-05-12T07:26:11.066Z,25.40
2023-05-12T07:27:11.078Z,22.22
2023-05-12T07:28:11.062Z,22.38
2023-05-12T07:29:13.675Z,19.30
2023-05-12T07:30:11.067Z,18.32
2023-05-12T07:31:11.092Z,25.00
2023-05-12T07:32:11.068Z,19.76
2023-05-12T07:33:11.145Z,23.20
2023-05-12T07:34:11.076Z,22.26
2023-05-12T07:35:11.070Z,20.04
2023-05-12T07:36:11.068Z,22.12
2023-05-12T07:37:11.073Z,18.54
2023-05-12T07:38:11.080Z,18.64
2023-05-12T07:39:11.088Z,19.66
2023-05-12T07:40:11.081Z,20.04
2023-05-12T07:41:11.069Z,18.06
2023-05-12T07:42:11.076Z,19.52
2023-05-12T07:43:11.079Z,18.86
2023-05-12T07:44:11.065Z,23.48
2023-05-12T07:45:11.073Z,18.80
2023-05-12T07:46:11.071Z,16.02
2023-05-12T07:47:11.122Z,22.06
2023-05-12T07:48:11.122Z,16.70
2023-05-12T07:49:11.072Z,22.54
2023-05-12T07:50:11.117Z,21.32
2023-05-12T07:51:11.070Z,21.30
2023-05-12T07:52:11.072Z,15.94
2023-05-12T07:53:11.069Z,15.80
2023-05-12T07:54:11.070Z,19.32
2023-05-12T07:55:11.074Z,22.30
2023-05-12T07:56:12.074Z,17.46
2023-05-12T07:57:11.077Z,20.50
2023-05-12T07:58:11.082Z,23.52
2023-05-12T07:59:11.070Z,20.48
2023-05-12T08:00:11.078Z,19.42
2023-05-12T08:01:11.078Z,20.96
2023-05-12T08:02:11.123Z,25.68
2023-05-12T08:03:11.151Z,18.42
2023-05-12T08:04:11.220Z,27.04
2023-05-12T08:05:11.076Z,22.18
2023-05-12T08:06:11.083Z,18.66
2023-05-12T08:07:11.079Z,23.00
2023-05-12T08:08:11.076Z,20.82
2023-05-12T08:09:11.069Z,20.64
2023-05-12T08:10:11.079Z,20.44
2023-05-12T08:11:11.098Z,21.94
2023-05-12T08:12:11.070Z,27.18
2023-05-12T08:13:11.070Z,26.40
2023-05-12T08:14:11.074Z,22.22
2023-05-12T08:15:11.077Z,18.78
2023-05-12T08:16:11.085Z,19.54
2023-05-12T08:17:11.153Z,18.74
2023-05-12T08:18:11.123Z,22.22
2023-05-12T08:19:11.096Z,18.00
2023-05-12T08:20:11.075Z,25.30
2023-05-12T08:21:11.072Z,19.34
2023-05-12T08:22:11.073Z,18.46
2023-05-12T08:23:11.082Z,21.70
2023-05-12T08:24:11.071Z,20.46
2023-05-12T08:25:12.539Z,29.60
2023-05-12T08:26:11.079Z,25.24
2023-05-12T08:27:11.073Z,22.18
2023-05-12T08:28:11.080Z,19.40
2023-05-12T08:29:12.081Z,22.80
2023-05-12T08:30:11.074Z,19.64
2023-05-12T08:31:11.165Z,20.22
2023-05-12T08:32:11.082Z,25.80
2023-05-12T08:33:11.098Z,30.10
2023-05-12T08:34:11.422Z,21.06
2023-05-12T08:35:11.083Z,24.22
2023-05-12T08:36:11.075Z,25.84
2023-05-12T08:37:11.074Z,23.48
2023-05-12T08:38:11.095Z,31.62
2023-05-12T08:39:11.087Z,26.64
2023-05-12T08:40:15.087Z,28.80
2023-05-12T08:41:18.081Z,25.16
2023-05-12T08:42:23.076Z,29.16
2023-05-12T08:43:19.074Z,24.18
2023-05-12T08:44:11.071Z,30.46
2023-05-12T08:45:11.081Z,25.56
2023-05-12T08:46:11.107Z,28.78
2023-05-12T08:47:11.084Z,26.86
2023-05-12T08:48:12.139Z,21.20
2023-05-12T08:49:12.101Z,21.22
2023-05-12T08:50:11.075Z,20.36
2023-05-12T08:51:11.081Z,20.02
2023-05-12T08:52:11.075Z,23.30
2023-05-12T08:53:12.086Z,18.64
2023-05-12T08:54:11.086Z,20.02
2023-05-12T08:55:11.146Z,25.40
2023-05-12T08:57:11.084Z,18.16
2023-05-12T08:58:11.085Z,21.46
2023-05-12T08:59:11.078Z,21.04
2023-05-12T09:00:11.092Z,19.78
2023-05-12T09:01:11.214Z,17.94
2023-05-12T09:02:11.184Z,17.46
2023-05-12T09:03:12.134Z,18.34
2023-05-12T09:04:11.145Z,17.16
2023-05-12T09:05:11.074Z,15.72
2023-05-12T09:06:11.076Z,15.86
2023-05-12T09:07:11.079Z,13.26
2023-05-12T09:08:11.075Z,14.92
2023-05-12T09:09:11.085Z,14.42
2023-05-12T09:10:29.827Z,17.80
2023-05-12T09:11:14.083Z,15.18
2023-05-12T09:12:14.050Z,19.44
2023-05-12T09:13:19.094Z,16.98
2023-05-12T09:14:18.080Z,16.78
2023-05-12T09:15:15.082Z,16.84
2023-05-12T09:16:13.156Z,17.52
2023-05-12T09:17:11.086Z,14.12
2023-05-12T09:18:11.077Z,12.16
2023-05-12T09:19:11.169Z,14.88
2023-05-12T09:20:20.575Z,12.84
2023-05-12T09:21:13.051Z,13.72
2023-05-12T09:22:11.081Z,11.50
2023-05-12T09:23:15.093Z,11.08
2023-05-12T09:24:11.083Z,14.66
2023-05-12T09:25:15.159Z,8.88
2023-05-12T09:26:11.085Z,12.10
2023-05-12T09:27:11.100Z,10.68
2023-05-12T09:28:11.081Z,9.58
2023-05-12T09:29:20.777Z,11.96
2023-05-12T09:30:13.076Z,11.66
2023-05-12T09:31:17.106Z,13.48
2023-05-12T09:32:11.121Z,13.76
2023-05-12T09:33:13.152Z,11.66
2023-05-12T09:34:11.086Z,9.86
2023-05-12T09:35:11.196Z,13.02
2023-05-12T09:36:11.083Z,9.82
2023-05-12T09:37:12.661Z,10.58
2023-05-12T09:38:11.084Z,6.98
2023-05-12T09:39:11.109Z,9.24
2023-05-12T09:40:11.088Z,9.86
2023-05-12T09:41:11.089Z,10.50
2023-05-12T09:42:13.090Z,8.80
2023-05-12T09:43:12.488Z,7.20
2023-05-12T09:44:11.092Z,13.02
2023-05-12T09:45:11.106Z,11.00
2023-05-12T09:46:11.128Z,15.12
2023-05-12T09:47:11.085Z,13.16
2023-05-12T09:48:11.099Z,12.12
2023-05-12T09:49:11.098Z,12.74
2023-05-12T09:50:11.093Z,13.30
2023-05-12T09:51:11.105Z,11.04
2023-05-12T09:52:11.090Z,14.02
2023-05-12T09:53:11.090Z,11.66
2023-05-12T09:54:11.090Z,10.34
2023-05-12T09:55:11.108Z,10.70
2023-05-12T09:56:13.087Z,7.30
2023-05-12T09:57:11.085Z,8.44
2023-05-12T09:58:11.092Z,7.60
2023-05-12T09:59:12.088Z,7.10
2023-05-12T10:00:31.155Z,9.02
2023-05-12T10:01:22.541Z,12.76
2023-05-12T10:02:13.066Z,13.80
2023-05-12T10:03:15.098Z,10.28
2023-05-12T10:04:11.135Z,12.34
2023-05-12T10:05:15.070Z,12.80
2023-05-12T10:06:14.065Z,9.22
2023-05-12T10:07:11.063Z,10.22
2023-05-12T10:08:13.068Z,9.96
2023-05-12T10:09:16.069Z,8.44
2023-05-12T10:10:11.066Z,5.92
2023-05-12T10:11:11.059Z,5.84
2023-05-12T10:12:11.065Z,10.00
2023-05-12T10:13:11.061Z,6.30
2023-05-12T10:14:12.064Z,5.38
2023-05-12T10:15:11.065Z,5.38
2023-05-12T10:16:11.087Z,6.90
2023-05-12T10:17:11.216Z,10.06
2023-05-12T10:18:11.151Z,9.20
2023-05-12T10:19:11.132Z,7.60
2023-05-12T10:20:11.072Z,8.34
2023-05-12T10:21:11.066Z,6.20
2023-05-12T10:22:12.078Z,10.28
2023-05-12T10:23:11.059Z,7.76
2023-05-12T10:24:11.065Z,8.26
2023-05-12T10:25:11.067Z,6.84
2023-05-12T10:26:11.061Z,8.48
2023-05-12T10:27:11.075Z,7.88
2023-05-12T10:28:11.067Z,14.64
2023-05-12T10:29:11.070Z,12.00
2023-05-12T10:30:11.078Z,21.88
2023-05-12T10:31:11.129Z,9.50
2023-05-12T10:32:11.070Z,10.36
2023-05-12T10:33:12.076Z,5.70
2023-05-12T10:34:17.064Z,11.46
2023-05-12T10:35:11.060Z,6.22
2023-05-12T10:36:19.072Z,11.20
2023-05-12T10:37:12.076Z,5.84
2023-05-12T10:38:13.076Z,6.94
2023-05-12T10:39:12.067Z,5.28
2023-05-12T10:40:11.076Z,6.82
2023-05-12T10:41:11.095Z,7.26
2023-05-12T10:42:11.067Z,10.16
2023-05-12T10:43:19.068Z,5.66
2023-05-12T10:44:11.066Z,6.46
2023-05-12T10:45:17.166Z,6.80
2023-05-12T10:46:17.134Z,4.36
2023-05-12T10:47:14.069Z,8.28
2023-05-12T10:48:15.080Z,13.38
2023-05-12T10:49:11.068Z,17.24
2023-05-12T10:50:11.080Z,6.06
2023-05-12T10:51:11.068Z,9.86
2023-05-12T10:52:12.071Z,7.20
2023-05-12T10:53:12.078Z,8.66
2023-05-12T10:54:11.070Z,3.72
2023-05-12T10:55:13.156Z,6.86
2023-05-12T10:56:11.368Z,11.86
2023-05-12T10:57:17.981Z,6.08
2023-05-12T10:58:13.423Z,5.46
2023-05-12T10:59:17.498Z,7.20
2023-05-12T11:00:13.621Z,7.14
2023-05-12T11:01:11.919Z,10.30
2023-05-12T11:02:17.709Z,4.24
2023-05-12T11:03:13.854Z,10.54
2023-05-12T11:04:15.437Z,8.36
2023-05-12T11:05:13.682Z,4.74
2023-05-12T11:06:15.725Z,24.44
2023-05-12T11:07:12.493Z,25.56
2023-05-12T11:08:11.776Z,12.24
2023-05-12T11:09:11.304Z,8.42
2023-05-12T11:10:11.221Z,5.20
2023-05-12T11:11:11.185Z,5.14
2023-05-12T11:12:11.081Z,8.74
2023-05-12T11:13:11.074Z,5.90
2023-05-12T11:14:11.077Z,11.48
2023-05-12T11:15:11.082Z,5.66
2023-05-12T11:16:13.093Z,10.42
2023-05-12T11:17:11.070Z,4.50
2023-05-12T11:18:11.086Z,9.14
2023-05-12T11:19:11.114Z,6.32
2023-05-12T11:20:11.098Z,5.20
2023-05-12T11:21:13.079Z,5.54
2023-05-12T11:22:11.085Z,5.04
2023-05-12T11:23:11.099Z,7.46
2023-05-12T11:24:12.190Z,10.84
2023-05-12T11:25:13.157Z,4.48
2023-05-12T11:26:17.080Z,4.20
2023-05-12T11:27:14.077Z,8.06
2023-05-12T11:28:12.083Z,3.64
2023-05-12T11:29:11.109Z,5.52
2023-05-12T11:30:11.112Z,8.18
2023-05-12T11:31:15.231Z,4.04
2023-05-12T11:32:11.143Z,5.36
2023-05-12T11:33:11.121Z,7.50
2023-05-12T11:34:13.023Z,4.86
2023-05-12T11:35:13.086Z,3.54
2023-05-12T11:36:11.079Z,6.02
2023-05-12T11:37:11.080Z,4.84
2023-05-12T11:38:15.086Z,3.68
2023-05-12T11:39:17.090Z,5.86
2023-05-12T11:40:20.102Z,6.50
2023-05-12T11:41:11.075Z,7.82
2023-05-12T11:42:13.282Z,10.88
2023-05-12T11:43:13.081Z,6.10
2023-05-12T11:44:17.086Z,4.44
2023-05-12T11:46:11.123Z,5.30
2023-05-12T11:47:16.074Z,6.60
2023-05-12T11:48:15.243Z,6.96
2023-05-12T11:49:13.078Z,5.64
2023-05-12T11:50:11.082Z,9.76
2023-05-12T11:51:11.077Z,6.18
2023-05-12T11:52:11.078Z,6.58
2023-05-12T11:53:13.086Z,7.82
2023-05-12T11:54:11.085Z,7.80
2023-05-12T11:55:11.082Z,6.96
2023-05-12T11:56:15.081Z,4.52
2023-05-12T11:57:11.081Z,6.60
2023-05-12T11:58:15.101Z,6.40
2023-05-12T11:59:11.102Z,4.86
2023-05-12T12:00:11.091Z,7.58
2023-05-12T12:01:11.102Z,6.98
2023-05-12T12:02:15.097Z,8.18
2023-05-12T12:03:11.212Z,8.02
2023-05-12T12:04:11.112Z,7.96
2023-05-12T12:05:17.101Z,4.76
2023-05-12T12:06:14.086Z,7.00
2023-05-12T12:07:11.086Z,5.66
2023-05-12T12:08:15.106Z,4.72
2023-05-12T12:09:11.084Z,10.48
2023-05-12T12:10:18.156Z,5.40
2023-05-12T12:11:11.092Z,6.74
2023-05-12T12:12:11.091Z,4.74
2023-05-12T12:13:11.087Z,6.28
2023-05-12T12:14:11.086Z,5.86
2023-05-12T12:15:11.092Z,9.26
2023-05-12T12:16:12.873Z,4.54
2023-05-12T12:17:11.088Z,3.30
2023-05-12T12:18:11.106Z,7.36
2023-05-12T12:19:11.155Z,5.56
2023-05-12T12:20:11.087Z,6.12
2023-05-12T12:21:11.096Z,5.08
2023-05-12T12:22:11.091Z,6.18
2023-05-12T12:23:11.090Z,7.94
2023-05-12T12:24:11.088Z,7.14
2023-05-12T12:25:11.101Z,7.74
2023-05-12T12:26:11.095Z,4.56
2023-05-12T12:27:11.102Z,4.40
2023-05-12T12:28:11.089Z,4.34
2023-05-12T12:29:11.101Z,6.44
2023-05-12T12:30:11.130Z,5.14
2023-05-12T12:31:11.159Z,5.12
2023-05-12T12:32:11.120Z,6.08
2023-05-12T12:33:11.179Z,5.70
2023-05-12T12:34:11.096Z,4.60
2023-05-12T12:35:11.097Z,7.72
2023-05-12T12:36:11.093Z,4.00
2023-05-12T12:37:11.091Z,5.18
2023-05-12T12:38:11.096Z,15.06
2023-05-12T12:39:11.090Z,7.76
2023-05-12T12:40:12.111Z,5.88
2023-05-12T12:41:11.102Z,6.58
2023-05-12T12:42:11.087Z,12.12
2023-05-12T12:43:11.093Z,5.78
2023-05-12T12:44:11.103Z,6.14
2023-05-12T12:45:11.092Z,22.16
2023-05-12T12:46:11.092Z,13.94
2023-05-12T12:47:11.173Z,11.20
2023-05-12T12:48:11.166Z,8.62
2023-05-12T12:49:11.095Z,12.08
2023-05-12T12:50:11.192Z,15.96
2023-05-12T12:51:11.095Z,7.26
2023-05-12T12:52:11.095Z,2.82
2023-05-12T12:53:11.114Z,10.98
2023-05-12T12:54:11.092Z,9.18
2023-05-12T12:55:11.096Z,9.52
2023-05-12T12:56:11.109Z,5.74
2023-05-12T12:57:11.094Z,8.20
2023-05-12T12:58:11.096Z,9.04
2023-05-12T12:59:11.108Z,14.44
2023-05-12T13:00:11.092Z,13.50
2023-05-12T13:01:11.102Z,11.76